Time;durP1;ratioP1;P1;durP2;ratioP2;P2;SDS_P1;SDS_P2;PMS_P1;PMS_P2;Temp;Humidity;BMP_temperature;BMP_pressure;BME280_temperature;BME280_humidity;BME280_pressure;Samples;Min_cycle;Max_cycle;Signal;HPM_P1;HPM_P2
2022/11/10 00:00:17;;;;;;;41.92;23.48;;;;;;;;;;5035218;28;20032;-76
2022/11/10 00:02:43;;;;;;;36.25;22.85;;;;;;;;;;5038277;28;20091;-75
2022/11/10 00:05:09;;;;;;;38.45;22.23;;;;;;;;;;5036370;28;20021;-75
2022/11/10 00:07:35;;;;;;;33.95;21.60;;;;;;;;;;5034044;28;20060;-75
2022/11/10 00:10:04;;;;;;;35.85;21.60;;;;;;;;;;5035264;28;20045;-74
2022/11/10 00:12:31;;;;;;;39.30;21.67;;;;;;;;;;5033894;28;20021;-72
2022/11/10 00:17:40;;;;;;;33.88;22.25;;;;;;;;;;5033705;28;20519;-74
2022/11/10 00:20:07;;;;;;;38.65;22.00;;;;;;;;;;5032936;28;20026;-70
2022/11/10 00:22:34;;;;;;;33.55;20.25;;;;;;;;;;5032491;28;20022;-70
2022/11/10 00:24:59;;;;;;;33.13;21.77;;;;;;;;;;5032481;28;20517;-70
2022/11/10 00:27:25;;;;;;;35.00;22.40;;;;;;;;;;5033496;28;20056;-75
2022/11/10 00:29:50;;;;;;;38.40;21.98;;;;;;;;;;5034249;28;20104;-76
2022/11/10 00:32:16;;;;;;;37.42;21.58;;;;;;;;;;5034132;28;20120;-76
2022/11/10 00:34:41;;;;;;;35.42;22.27;;;;;;;;;;5039043;28;20036;-76
2022/11/10 00:37:07;;;;;;;35.85;21.13;;;;;;;;;;5038209;28;20117;-76
2022/11/10 00:39:32;;;;;;;36.60;22.80;;;;;;;;;;5034816;28;20098;-76
2022/11/10 00:41:58;;;;;;;36.97;23.02;;;;;;;;;;5034059;28;20025;-76
2022/11/10 00:44:23;;;;;;;35.63;22.63;;;;;;;;;;5034092;28;20783;-76
2022/11/10 00:46:49;;;;;;;36.50;21.52;;;;;;;;;;5033287;28;20041;-76
2022/11/10 00:49:15;;;;;;;38.63;23.25;;;;;;;;;;5036326;28;20381;-70
2022/11/10 00:51:40;;;;;;;37.25;22.83;;;;;;;;;;5036778;28;20545;-70
2022/11/10 00:54:06;;;;;;;43.20;23.77;;;;;;;;;;5040463;28;20045;-70
2022/11/10 00:56:31;;;;;;;38.65;23.83;;;;;;;;;;5040077;28;20029;-70
2022/11/10 00:58:57;;;;;;;35.63;22.60;;;;;;;;;;5039107;28;20078;-70
2022/11/10 01:01:24;;;;;;;40.08;23.00;;;;;;;;;;5032752;28;20045;-69
2022/11/10 01:03:50;;;;;;;36.67;22.65;;;;;;;;;;5032596;28;20029;-70
2022/11/10 01:06:18;;;;;;;37.60;22.98;;;;;;;;;;5032584;28;20095;-71
2022/11/10 01:08:44;;;;;;;36.25;23.25;;;;;;;;;;5031763;28;20033;-70
2022/11/10 01:11:20;;;;;;;35.90;22.45;;;;;;;;;;5031884;28;20026;-70
2022/11/10 01:13:46;;;;;;;37.78;22.83;;;;;;;;;;5031952;28;20025;-70
2022/11/10 01:16:19;;;;;;;38.90;22.77;;;;;;;;;;5031489;28;20041;-70
2022/11/10 01:18:54;;;;;;;38.97;24.58;;;;;;;;;;5029942;28;20122;-70
2022/11/10 01:21:20;;;;;;;40.15;23.52;;;;;;;;;;5031838;28;20022;-70
2022/11/10 01:23:46;;;;;;;36.00;22.77;;;;;;;;;;5032361;28;20033;-75
2022/11/10 01:26:12;;;;;;;40.55;24.50;;;;;;;;;;5032056;28;20052;-75
2022/11/10 01:28:38;;;;;;;39.35;24.33;;;;;;;;;;5032025;28;20544;-75
2022/11/10 01:31:09;;;;;;;41.67;24.52;;;;;;;;;;5032086;28;20032;-72
2022/11/10 01:33:35;;;;;;;36.53;23.63;;;;;;;;;;5031224;28;20022;-74
2022/11/10 01:36:01;;;;;;;40.70;22.88;;;;;;;;;;5031400;28;20061;-74
2022/11/10 01:38:33;;;;;;;39.25;23.00;;;;;;;;;;5031907;28;20113;-69
2022/11/10 01:41:00;;;;;;;37.72;22.80;;;;;;;;;;5031789;28;20136;-73
2022/11/10 01:43:26;;;;;;;35.72;21.25;;;;;;;;;;5032741;28;20029;-69
2022/11/10 01:46:09;;;;;;;38.17;22.15;;;;;;;;;;5031586;28;20032;-73
2022/11/10 01:48:41;;;;;;;37.50;22.17;;;;;;;;;;5035660;28;20218;-70
2022/11/10 01:51:16;;;;;;;40.38;22.83;;;;;;;;;;5038391;28;20112;-70
2022/11/10 01:53:46;;;;;;;37.45;21.75;;;;;;;;;;5034412;28;20144;-72
2022/11/10 01:56:12;;;;;;;;;;;;;;;;;;5040008;28;20045;-73
2022/11/10 01:58:42;;;;;;;34.03;20.40;;;;;;;;;;5039291;28;20371;-72
2022/11/10 02:01:08;;;;;;;34.92;20.92;;;;;;;;;;5031144;28;20028;-72
2022/11/10 02:03:42;;;;;;;36.72;21.48;;;;;;;;;;5031136;28;20038;-72
2022/11/10 02:06:07;;;;;;;32.28;20.65;;;;;;;;;;5030891;28;20155;-71
2022/11/10 02:08:34;;;;;;;32.97;20.35;;;;;;;;;;5030431;28;20142;-71
2022/11/10 02:10:59;;;;;;;32.42;20.92;;;;;;;;;;5030634;28;20524;-71
2022/11/10 02:13:25;;;;;;;31.73;20.92;;;;;;;;;;5030779;28;20083;-71
2022/11/10 02:15:51;;;;;;;33.55;20.48;;;;;;;;;;5030645;28;20175;-70
2022/11/10 02:18:16;;;;;;;37.95;20.55;;;;;;;;;;5033388;28;20034;-72
2022/11/10 02:20:44;;;;;;;31.42;19.98;;;;;;;;;;5036111;28;20033;-71
2022/11/10 02:23:29;;;;;;;32.58;20.50;;;;;;;;;;5034619;28;20022;-70
2022/11/10 02:25:55;;;;;;;32.88;20.02;;;;;;;;;;5035893;28;20054;-72
2022/11/10 02:28:21;;;;;;;29.33;19.98;;;;;;;;;;5031481;28;20750;-71
2022/11/10 02:30:46;;;;;;;31.83;19.80;;;;;;;;;;5031383;28;20044;-69
2022/11/10 02:33:12;;;;;;;36.47;21.88;;;;;;;;;;5030742;28;20037;-69
2022/11/10 02:35:37;;;;;;;35.05;20.52;;;;;;;;;;5030720;28;20029;-70
2022/11/10 02:38:03;;;;;;;34.08;20.10;;;;;;;;;;5030511;28;20028;-74
2022/11/10 02:40:28;;;;;;;37.55;20.10;;;;;;;;;;5030574;28;20129;-71
2022/11/10 02:42:54;;;;;;;42.88;21.33;;;;;;;;;;5030510;28;20428;-71
2022/11/10 02:45:20;;;;;;;31.25;19.63;;;;;;;;;;5030537;28;20060;-71
2022/11/10 02:47:45;;;;;;;39.25;20.75;;;;;;;;;;5030618;28;20034;-71
2022/11/10 02:50:11;;;;;;;36.13;20.45;;;;;;;;;;5030244;28;20064;-70
2022/11/10 02:52:36;;;;;;;33.97;19.75;;;;;;;;;;5028925;28;20087;-70
2022/11/10 02:55:02;;;;;;;32.92;19.35;;;;;;;;;;5030281;28;20061;-68
2022/11/10 02:57:28;;;;;;;32.17;19.58;;;;;;;;;;5030315;28;20112;-70
2022/11/10 02:59:53;;;;;;;34.05;20.52;;;;;;;;;;5030260;28;20109;-68
2022/11/10 03:02:19;;;;;;;33.67;19.60;;;;;;;;;;5030338;28;20469;-69
2022/11/10 03:04:44;;;;;;;34.72;19.38;;;;;;;;;;5030426;28;20037;-68
2022/11/10 03:07:10;;;;;;;32.30;19.20;;;;;;;;;;5030470;28;20033;-69
2022/11/10 03:09:35;;;;;;;34.92;20.63;;;;;;;;;;5030011;28;20535;-68
2022/11/10 03:12:01;;;;;;;36.72;19.38;;;;;;;;;;5030407;28;20072;-69
2022/11/10 03:14:26;;;;;;;33.08;19.45;;;;;;;;;;5030205;28;20420;-68
2022/11/10 03:16:52;;;;;;;33.45;19.85;;;;;;;;;;5030121;28;20042;-69
2022/11/10 03:19:18;;;;;;;31.63;19.42;;;;;;;;;;5030269;28;20112;-68
2022/11/10 03:21:43;;;;;;;35.35;20.05;;;;;;;;;;5030681;28;20461;-68
2022/11/10 03:24:09;;;;;;;32.95;20.15;;;;;;;;;;5034120;28;20072;-68
2022/11/10 03:26:34;;;;;;;31.98;19.08;;;;;;;;;;5033514;28;20417;-68
2022/11/10 03:29:00;;;;;;;31.80;19.23;;;;;;;;;;5033451;28;20381;-68
2022/11/10 03:31:25;;;;;;;30.20;18.75;;;;;;;;;;5033919;28;20051;-68
2022/11/10 03:33:51;;;;;;;29.77;18.80;;;;;;;;;;5033543;28;20025;-68
2022/11/10 03:36:16;;;;;;;31.70;18.98;;;;;;;;;;5034826;28;20036;-68
2022/11/10 03:38:42;;;;;;;29.52;18.42;;;;;;;;;;5034876;28;20033;-68
2022/11/10 03:41:07;;;;;;;31.40;18.85;;;;;;;;;;5033811;28;20025;-69
2022/11/10 03:43:33;;;;;;;32.70;19.17;;;;;;;;;;5035094;28;20037;-69
2022/11/10 03:45:58;;;;;;;36.15;19.65;;;;;;;;;;5035280;28;20107;-68
2022/11/10 03:48:23;;;;;;;33.10;19.35;;;;;;;;;;5034947;28;20160;-69
2022/11/10 03:50:49;;;;;;;28.35;18.10;;;;;;;;;;5034786;28;20393;-69
2022/11/10 03:53:14;;;;;;;34.30;18.88;;;;;;;;;;5033537;28;20032;-69
2022/11/10 03:55:40;;;;;;;28.63;18.48;;;;;;;;;;5034644;28;20481;-67
2022/11/10 03:58:05;;;;;;;36.25;19.38;;;;;;;;;;5035074;28;20041;-68
2022/11/10 04:00:31;;;;;;;31.95;18.00;;;;;;;;;;5034935;28;20099;-67
2022/11/10 04:02:56;;;;;;;30.13;19.27;;;;;;;;;;5034865;28;20029;-68
2022/11/10 04:10:56;;;;;;;27.02;18.17;;;;;;;;;;5034908;28;20044;-68
2022/11/10 04:16:06;;;;;;;30.63;18.67;;;;;;;;;;5034416;28;20087;-68
2022/11/10 04:18:31;;;;;;;29.05;17.27;;;;;;;;;;5034388;28;20424;-69
2022/11/10 04:21:01;;;;;;;26.05;17.08;;;;;;;;;;5034288;28;20398;-68
2022/11/10 04:23:33;;;;;;;29.90;17.23;;;;;;;;;;5034320;28;20477;-68
2022/11/10 04:28:54;;;;;;;31.40;18.08;;;;;;;;;;5034443;28;20409;-69
2022/11/10 04:31:21;;;;;;;26.05;16.85;;;;;;;;;;5034118;28;20021;-69
2022/11/10 04:33:48;;;;;;;26.10;16.35;;;;;;;;;;5034336;28;20021;-69
2022/11/10 04:36:16;;;;;;;24.35;16.92;;;;;;;;;;5034181;28;20430;-69
2022/11/10 04:38:42;;;;;;;27.70;17.77;;;;;;;;;;5034249;28;20111;-69
2022/11/10 04:41:08;;;;;;;29.15;17.35;;;;;;;;;;5034022;28;20469;-69
2022/11/10 04:43:34;;;;;;;27.85;17.27;;;;;;;;;;5033862;28;20022;-69
2022/11/10 04:46:01;;;;;;;26.63;17.60;;;;;;;;;;5033954;28;20025;-69
2022/11/10 04:48:27;;;;;;;30.05;17.48;;;;;;;;;;5034160;28;20029;-69
2022/11/10 04:50:53;;;;;;;28.30;16.58;;;;;;;;;;5034061;28;20068;-69
2022/11/10 04:53:19;;;;;;;29.20;17.80;;;;;;;;;;5033819;28;20028;-69
2022/11/10 04:55:45;;;;;;;29.20;17.33;;;;;;;;;;5033602;28;20025;-68
2022/11/10 04:58:12;;;;;;;26.15;16.48;;;;;;;;;;5033689;28;20025;-69
2022/11/10 05:00:38;;;;;;;26.20;16.77;;;;;;;;;;5033555;28;20021;-70
2022/11/10 05:03:05;;;;;;;25.00;16.95;;;;;;;;;;5033835;28;20136;-70
2022/11/10 05:05:31;;;;;;;25.02;16.25;;;;;;;;;;5033565;28;20494;-68
2022/11/10 05:07:57;;;;;;;27.05;16.85;;;;;;;;;;5033636;28;20104;-69
2022/11/10 05:10:23;;;;;;;29.40;16.88;;;;;;;;;;5033692;28;20056;-68
2022/11/10 05:12:51;;;;;;;26.40;16.50;;;;;;;;;;5033604;28;20572;-68
2022/11/10 05:15:16;;;;;;;25.25;16.70;;;;;;;;;;5033296;28;20477;-68
2022/11/10 05:17:42;;;;;;;24.17;15.63;;;;;;;;;;5033326;28;20037;-69
2022/11/10 05:20:08;;;;;;;34.55;17.90;;;;;;;;;;5033266;28;20025;-70
2022/11/10 05:22:34;;;;;;;24.50;16.98;;;;;;;;;;5033131;28;20095;-70
2022/11/10 05:24:59;;;;;;;24.75;16.65;;;;;;;;;;5032868;28;20497;-70
2022/11/10 05:27:25;;;;;;;25.35;16.95;;;;;;;;;;5033012;28;20033;-70
2022/11/10 05:29:50;;;;;;;29.83;17.30;;;;;;;;;;5032973;28;20029;-70
2022/11/10 05:32:16;;;;;;;23.90;16.40;;;;;;;;;;5033304;28;20036;-70
2022/11/10 05:34:41;;;;;;;22.75;16.00;;;;;;;;;;5032885;28;20125;-71
2022/11/10 05:37:07;;;;;;;26.45;16.65;;;;;;;;;;5032982;28;20025;-69
2022/11/10 05:39:32;;;;;;;25.85;16.50;;;;;;;;;;5032932;28;20473;-69
2022/11/10 05:41:58;;;;;;;25.27;16.48;;;;;;;;;;5032794;28;20060;-69
2022/11/10 05:44:23;;;;;;;23.48;15.85;;;;;;;;;;5032716;28;20030;-68
2022/11/10 05:46:49;;;;;;;22.75;16.27;;;;;;;;;;5032680;28;20081;-68
2022/11/10 05:49:14;;;;;;;24.45;16.38;;;;;;;;;;5032957;28;20063;-68
2022/11/10 05:51:40;;;;;;;25.67;15.63;;;;;;;;;;5032909;28;20029;-69
2022/11/10 05:54:05;;;;;;;26.73;16.45;;;;;;;;;;5032912;28;20072;-68
2022/11/10 05:56:31;;;;;;;25.27;16.50;;;;;;;;;;5032907;28;20029;-68
2022/11/10 05:58:56;;;;;;;23.02;16.15;;;;;;;;;;5032661;28;20025;-68
2022/11/10 06:01:22;;;;;;;23.73;15.43;;;;;;;;;;5032652;28;20026;-68
2022/11/10 06:03:47;;;;;;;25.25;16.83;;;;;;;;;;5032537;28;20044;-69
2022/11/10 06:06:13;;;;;;;21.48;14.75;;;;;;;;;;5032449;28;20065;-68
2022/11/10 06:08:38;;;;;;;25.95;16.60;;;;;;;;;;5032724;28;20025;-68
2022/11/10 06:11:04;;;;;;;24.80;16.17;;;;;;;;;;5032721;28;20476;-68
2022/11/10 06:13:30;;;;;;;24.38;15.43;;;;;;;;;;5032479;28;20105;-68
2022/11/10 06:15:55;;;;;;;22.02;16.00;;;;;;;;;;5031073;28;20553;-68
2022/11/10 06:18:21;;;;;;;24.65;15.63;;;;;;;;;;5032334;28;20389;-68
2022/11/10 06:20:46;;;;;;;24.98;15.98;;;;;;;;;;5031116;28;20108;-70
2022/11/10 06:23:13;;;;;;;22.17;15.63;;;;;;;;;;5032276;28;20022;-69
2022/11/10 06:25:40;;;;;;;25.38;16.23;;;;;;;;;;5032235;28;20041;-68
2022/11/10 06:28:07;;;;;;;24.00;15.55;;;;;;;;;;5032264;28;20056;-68
2022/11/10 06:30:35;;;;;;;27.15;15.23;;;;;;;;;;5032564;28;20037;-69
2022/11/10 06:33:01;;;;;;;23.08;16.10;;;;;;;;;;5032590;28;20428;-68
2022/11/10 06:35:27;;;;;;;25.45;14.85;;;;;;;;;;5032213;28;20033;-69
2022/11/10 06:38:11;;;;;;;24.35;15.25;;;;;;;;;;5032149;28;20466;-68
2022/11/10 06:40:37;;;;;;;22.88;15.63;;;;;;;;;;5032134;28;20025;-67
2022/11/10 06:43:03;;;;;;;23.35;15.77;;;;;;;;;;5032463;28;20024;-68
2022/11/10 06:45:28;;;;;;;23.90;16.27;;;;;;;;;;5032217;28;20108;-68
2022/11/10 06:48:04;;;;;;;21.63;15.32;;;;;;;;;;5032128;28;20096;-68
2022/11/10 06:50:30;;;;;;;26.20;15.45;;;;;;;;;;5032243;28;20021;-70
2022/11/10 06:52:57;;;;;;;22.58;14.73;;;;;;;;;;5032123;28;20026;-70
2022/11/10 06:55:23;;;;;;;22.50;15.57;;;;;;;;;;5031950;28;20523;-70
2022/11/10 06:57:48;;;;;;;21.05;14.50;;;;;;;;;;5034275;28;20030;-70
2022/11/10 07:00:15;;;;;;;22.60;14.80;;;;;;;;;;5035713;28;20025;-70
2022/11/10 07:02:40;;;;;;;23.05;15.85;;;;;;;;;;5035889;28;20476;-69
2022/11/10 07:05:06;;;;;;;22.67;16.33;;;;;;;;;;5035757;28;20080;-70
2022/11/10 07:07:32;;;;;;;24.35;16.02;;;;;;;;;;5035688;28;20037;-70
2022/11/10 07:09:57;;;;;;;21.67;14.90;;;;;;;;;;5034372;28;20397;-70
2022/11/10 07:12:22;;;;;;;19.67;14.65;;;;;;;;;;5034224;28;20018;-69
2022/11/10 07:14:48;;;;;;;23.13;15.73;;;;;;;;;;5034504;28;20037;-70
2022/11/10 07:17:13;;;;;;;22.80;15.25;;;;;;;;;;5035382;28;20013;-70
2022/11/10 07:19:39;;;;;;;22.90;15.00;;;;;;;;;;5035660;28;20025;-70
2022/11/10 07:22:06;;;;;;;21.95;15.00;;;;;;;;;;5034148;28;20441;-69
2022/11/10 07:24:32;;;;;;;24.73;15.20;;;;;;;;;;5035357;28;20121;-68
2022/11/10 07:26:57;;;;;;;21.92;15.65;;;;;;;;;;5034909;28;20125;-70
2022/11/10 07:29:24;;;;;;;24.95;16.65;;;;;;;;;;5035601;28;20428;-70
2022/11/10 07:31:49;;;;;;;21.20;15.18;;;;;;;;;;5035151;28;20018;-69
2022/11/10 07:34:15;;;;;;;22.02;15.93;;;;;;;;;;5035377;28;20018;-70
2022/11/10 07:36:40;;;;;;;21.80;15.10;;;;;;;;;;5034359;28;20487;-70
2022/11/10 07:39:06;;;;;;;19.48;14.80;;;;;;;;;;5035163;28;20052;-69
2022/11/10 07:41:32;;;;;;;22.33;15.27;;;;;;;;;;5033859;28;20033;-68
2022/11/10 07:43:57;;;;;;;20.80;14.57;;;;;;;;;;5035167;28;20025;-70
2022/11/10 07:46:23;;;;;;;20.67;15.18;;;;;;;;;;5033664;28;20029;-69
2022/11/10 07:48:48;;;;;;;21.45;14.98;;;;;;;;;;5035178;28;20032;-68
2022/11/10 07:51:14;;;;;;;20.98;14.80;;;;;;;;;;5033640;28;20025;-68
2022/11/10 07:53:40;;;;;;;22.50;14.75;;;;;;;;;;5016977;28;20076;-68
2022/11/10 07:56:06;;;;;;;20.48;15.27;;;;;;;;;;5034810;28;20045;-69
2022/11/10 07:58:32;;;;;;;22.15;15.10;;;;;;;;;;5033371;28;20025;-69
2022/11/10 08:00:58;;;;;;;20.95;14.85;;;;;;;;;;5034687;28;20021;-69
2022/11/10 08:03:24;;;;;;;20.40;14.77;;;;;;;;;;5034615;28;20080;-69
2022/11/10 08:05:50;;;;;;;20.02;14.75;;;;;;;;;;5033281;28;20029;-69
2022/11/10 08:08:16;;;;;;;21.50;14.93;;;;;;;;;;5034507;28;20026;-67
2022/11/10 08:10:42;;;;;;;21.02;15.10;;;;;;;;;;5034287;28;20026;-70
2022/11/10 08:13:10;;;;;;;23.17;15.77;;;;;;;;;;5034201;28;20063;-69
2022/11/10 08:15:36;;;;;;;21.27;14.98;;;;;;;;;;5032966;28;20412;-70
2022/11/10 08:18:18;;;;;;;21.20;14.10;;;;;;;;;;5033051;28;20090;-68
2022/11/10 08:20:44;;;;;;;21.08;15.02;;;;;;;;;;5034436;28;20029;-69
2022/11/10 08:23:09;;;;;;;23.17;15.07;;;;;;;;;;5033734;28;20029;-70
2022/11/10 08:25:36;;;;;;;24.42;16.30;;;;;;;;;;5033989;28;20071;-67
2022/11/10 08:28:11;;;;;;;22.90;14.95;;;;;;;;;;5034412;28;20033;-68
2022/11/10 08:30:39;;;;;;;21.05;15.13;;;;;;;;;;5034110;28;20029;-67
2022/11/10 08:33:06;;;;;;;21.98;15.20;;;;;;;;;;5032846;28;20080;-67
2022/11/10 08:35:37;;;;;;;22.17;14.73;;;;;;;;;;5034179;28;20037;-67
2022/11/10 08:38:09;;;;;;;;;;;;;;;;;;5034753;28;20105;-68
2022/11/10 08:40:35;;;;;;;23.05;15.20;;;;;;;;;;5032430;28;19913;-67
2022/11/10 08:43:02;;;;;;;19.27;14.18;;;;;;;;;;5033857;28;20413;-68
2022/11/10 08:45:28;;;;;;;20.48;15.35;;;;;;;;;;5033082;28;20033;-68
2022/11/10 08:48:02;;;;;;;20.98;15.55;;;;;;;;;;5033265;28;20132;-68
2022/11/10 08:50:28;;;;;;;20.15;15.00;;;;;;;;;;5033835;28;20029;-68
2022/11/10 08:52:54;;;;;;;20.27;15.18;;;;;;;;;;5033798;28;20021;-68
2022/11/10 08:55:20;;;;;;;19.23;13.75;;;;;;;;;;5033854;28;20033;-68
2022/11/10 08:57:47;;;;;;;19.00;14.60;;;;;;;;;;5034200;28;20064;-69
2022/11/10 09:00:16;;;;;;;22.02;15.63;;;;;;;;;;5034181;28;20033;-69
2022/11/10 09:02:41;;;;;;;21.27;15.85;;;;;;;;;;5035251;28;20056;-69
2022/11/10 09:05:07;;;;;;;21.17;15.00;;;;;;;;;;5034076;28;20080;-68
2022/11/10 09:07:53;;;;;;;19.52;15.18;;;;;;;;;;5033922;28;20029;-69
2022/11/10 09:10:18;;;;;;;21.33;15.23;;;;;;;;;;5033210;28;20040;-68
2022/11/10 09:12:44;;;;;;;21.67;14.70;;;;;;;;;;5032441;28;20029;-68
2022/11/10 09:15:10;;;;;;;21.38;15.32;;;;;;;;;;5033479;28;20030;-69
2022/11/10 09:17:37;;;;;;;20.92;13.85;;;;;;;;;;5034051;28;20025;-69
2022/11/10 09:20:04;;;;;;;21.38;15.35;;;;;;;;;;5032531;28;20034;-68
2022/11/10 09:22:29;;;;;;;22.95;14.85;;;;;;;;;;5033426;28;20168;-69
2022/11/10 09:24:55;;;;;;;20.58;15.35;;;;;;;;;;5033247;28;20049;-70
2022/11/10 09:27:20;;;;;;;20.92;15.02;;;;;;;;;;5033105;28;20386;-68
2022/11/10 09:29:46;;;;;;;20.85;15.00;;;;;;;;;;5033115;28;20139;-68
2022/11/10 09:32:11;;;;;;;22.15;14.60;;;;;;;;;;5032897;28;20041;-69
2022/11/10 09:34:37;;;;;;;21.05;14.85;;;;;;;;;;5031700;28;20037;-69
2022/11/10 09:37:02;;;;;;;20.77;15.13;;;;;;;;;;5033232;28;20030;-69
2022/11/10 09:39:28;;;;;;;21.70;14.82;;;;;;;;;;5032801;28;20444;-70
2022/11/10 09:41:54;;;;;;;18.33;13.90;;;;;;;;;;5032834;28;20053;-68
2022/11/10 09:44:37;;;;;;;20.08;14.55;;;;;;;;;;5032758;28;20037;-68
2022/11/10 09:47:13;;;;;;;22.17;15.40;;;;;;;;;;5032857;28;20021;-68
2022/11/10 09:49:45;;;;;;;18.98;14.27;;;;;;;;;;5032785;28;20029;-68
2022/11/10 09:52:12;;;;;;;21.95;15.05;;;;;;;;;;5032775;28;20052;-68
2022/11/10 09:54:44;;;;;;;19.80;14.55;;;;;;;;;;5032566;28;20477;-68
2022/11/10 09:57:14;;;;;;;20.23;14.00;;;;;;;;;;5031748;28;20040;-68
2022/11/10 09:59:41;;;;;;;21.48;14.82;;;;;;;;;;5032487;28;20021;-68
2022/11/10 10:02:22;;;;;;;21.33;15.88;;;;;;;;;;5032567;28;20080;-68
2022/11/10 10:05:13;;;;;;;;;;;;;;;;;;5032978;28;20040;-68
2022/11/10 10:07:44;;;;;;;21.10;14.82;;;;;;;;;;5016487;28;19913;-68
2022/11/10 10:10:28;;;;;;;19.48;13.85;;;;;;;;;;5032457;28;20021;-68
2022/11/10 10:13:19;;;;;;;19.90;13.98;;;;;;;;;;5032304;28;20071;-68
2022/11/10 10:15:48;;;;;;;19.95;14.00;;;;;;;;;;5029251;28;20053;-68
2022/11/10 10:18:39;;;;;;;20.13;14.40;;;;;;;;;;5032559;28;20041;-68
2022/11/10 10:21:29;;;;;;;19.08;13.73;;;;;;;;;;5032386;28;20025;-68
2022/11/10 10:23:58;;;;;;;20.45;14.60;;;;;;;;;;5032675;28;20417;-68
2022/11/10 10:26:30;;;;;;;19.67;14.68;;;;;;;;;;5032002;28;20056;-69
2022/11/10 10:29:00;;;;;;;20.45;14.50;;;;;;;;;;5032245;28;20087;-68
2022/11/10 10:31:50;;;;;;;20.70;14.30;;;;;;;;;;5034041;28;20022;-68
2022/11/10 10:34:23;;;;;;;20.20;14.77;;;;;;;;;;5028631;28;20390;-69
2022/11/10 10:36:49;;;;;;;18.00;13.63;;;;;;;;;;5032341;28;20041;-69
2022/11/10 10:39:42;;;;;;;19.25;14.25;;;;;;;;;;5031684;28;20112;-69
2022/11/10 10:42:26;;;;;;;22.23;14.65;;;;;;;;;;5030015;28;20030;-70
2022/11/10 10:45:18;;;;;;;22.45;14.82;;;;;;;;;;5032605;28;20037;-68
2022/11/10 10:47:46;;;;;;;19.58;13.73;;;;;;;;;;5033878;28;20033;-68
2022/11/10 10:50:28;;;;;;;18.63;14.00;;;;;;;;;;5028141;28;20416;-70
2022/11/10 10:53:10;;;;;;;19.10;13.75;;;;;;;;;;5032348;28;20024;-69
2022/11/10 10:55:36;;;;;;;19.92;14.95;;;;;;;;;;5033109;28;20032;-69
2022/11/10 10:58:23;;;;;;;19.60;14.45;;;;;;;;;;5032283;28;20033;-70
2022/11/10 11:00:53;;;;;;;20.38;14.10;;;;;;;;;;5014338;28;20468;-70
2022/11/10 11:03:36;;;;;;;19.52;14.75;;;;;;;;;;5014527;28;20062;-70
2022/11/10 11:06:17;;;;;;;18.92;14.10;;;;;;;;;;5030515;28;20120;-70
2022/11/10 11:09:21;;;;;;;17.48;13.45;;;;;;;;;;5014342;28;20033;-69
2022/11/10 11:12:19;;;;;;;17.63;12.63;;;;;;;;;;5005526;28;20092;-68
2022/11/10 11:14:44;;;;;;;20.40;14.43;;;;;;;;;;5014993;28;20033;-69
2022/11/10 11:17:21;;;;;;;19.55;13.93;;;;;;;;;;5022714;28;20033;-68
2022/11/10 11:19:50;;;;;;;18.40;13.65;;;;;;;;;;5033092;28;20029;-68
2022/11/10 11:22:51;;;;;;;21.25;14.20;;;;;;;;;;5034077;28;20087;-69
2022/11/10 11:25:33;;;;;;;19.88;14.50;;;;;;;;;;5033299;28;20092;-68
2022/11/10 11:28:05;;;;;;;20.95;13.75;;;;;;;;;;5033897;28;20036;-70
2022/11/10 11:30:46;;;;;;;18.65;13.60;;;;;;;;;;5033856;28;20032;-68
2022/11/10 11:33:21;;;;;;;19.63;14.00;;;;;;;;;;5034001;28;20409;-67
2022/11/10 11:35:49;;;;;;;19.58;13.77;;;;;;;;;;5033591;28;20041;-67
2022/11/10 11:38:23;;;;;;;19.52;13.40;;;;;;;;;;5032322;28;20060;-68
2022/11/10 11:41:01;;;;;;;19.55;13.95;;;;;;;;;;5033537;28;20041;-68
2022/11/10 11:43:52;;;;;;;20.20;14.35;;;;;;;;;;5032734;28;20025;-71
2022/11/10 11:46:25;;;;;;;18.50;13.35;;;;;;;;;;5033531;28;20047;-72
2022/11/10 11:49:17;;;;;;;19.70;14.35;;;;;;;;;;5033701;28;20120;-68
2022/11/10 11:51:53;;;;;;;20.08;14.13;;;;;;;;;;5033739;28;20026;-69
2022/11/10 11:54:40;;;;;;;19.27;13.70;;;;;;;;;;5033586;28;20021;-69
2022/11/10 11:57:44;;;;;;;21.77;13.73;;;;;;;;;;5033202;28;20028;-69
2022/11/10 12:00:14;;;;;;;19.33;12.82;;;;;;;;;;5033144;28;20033;-68
2022/11/10 12:02:54;;;;;;;18.88;13.27;;;;;;;;;;5032697;28;20033;-72
2022/11/10 12:05:30;;;;;;;19.60;13.80;;;;;;;;;;5030763;28;20034;-66
2022/11/10 12:08:24;;;;;;;17.75;13.10;;;;;;;;;;5032928;28;20025;-67
2022/11/10 12:10:58;;;;;;;18.50;13.82;;;;;;;;;;5021841;28;20045;-68
2022/11/10 12:13:30;;;;;;;19.95;13.32;;;;;;;;;;5031060;28;20032;-67
2022/11/10 12:16:27;;;;;;;18.15;13.65;;;;;;;;;;5033103;28;20122;-70
2022/11/10 12:19:07;;;;;;;17.50;13.07;;;;;;;;;;5024433;28;20045;-69
2022/11/10 12:21:50;;;;;;;16.58;13.32;;;;;;;;;;5031521;28;20036;-68
2022/11/10 12:24:47;;;;;;;16.60;13.07;;;;;;;;;;5030625;28;20109;-67
2022/11/10 12:27:29;;;;;;;19.80;12.75;;;;;;;;;;5031890;28;20049;-70
2022/11/10 12:30:03;;;;;;;18.60;13.27;;;;;;;;;;5043690;28;20388;-70
2022/11/10 12:32:46;;;;;;;17.05;12.25;;;;;;;;;;5052493;28;20033;-69
2022/11/10 12:35:27;;;;;;;16.50;12.20;;;;;;;;;;5052566;28;20432;-71
2022/11/10 12:38:13;;;;;;;19.52;13.57;;;;;;;;;;5038051;28;20143;-69
2022/11/10 12:40:40;;;;;;;18.10;12.45;;;;;;;;;;5062896;28;20029;-69
2022/11/10 12:43:19;;;;;;;18.30;13.02;;;;;;;;;;5032220;28;20037;-69
2022/11/10 12:45:50;;;;;;;19.90;13.35;;;;;;;;;;5032699;28;20030;-69
2022/11/10 12:48:17;;;;;;;17.65;13.57;;;;;;;;;;5030638;28;20034;-69
2022/11/10 12:51:34;;;;;;;16.33;12.98;;;;;;;;;;5064072;28;20047;-71
2022/11/10 12:53:59;;;;;;;19.48;13.57;;;;;;;;;;5005922;28;20453;-68
2022/11/10 12:56:36;;;;;;;17.92;13.45;;;;;;;;;;5030079;28;20069;-72
2022/11/10 12:59:20;;;;;;;17.02;13.13;;;;;;;;;;5031363;28;20447;-71
2022/11/10 13:01:56;;;;;;;18.35;13.00;;;;;;;;;;5035299;28;20107;-69
2022/11/10 13:04:22;;;;;;;19.02;13.52;;;;;;;;;;5030453;28;20025;-71
2022/11/10 13:06:54;;;;;;;15.30;12.13;;;;;;;;;;5031943;28;20072;-70
2022/11/10 13:09:32;;;;;;;16.27;12.18;;;;;;;;;;5031887;28;20056;-71
2022/11/10 13:12:12;;;;;;;16.60;12.52;;;;;;;;;;5031786;28;20025;-69
2022/11/10 13:14:38;;;;;;;17.55;12.90;;;;;;;;;;5031251;28;20026;-69
2022/11/10 13:17:04;;;;;;;17.42;12.75;;;;;;;;;;5031991;28;20033;-69
2022/11/10 13:19:32;;;;;;;21.42;12.70;;;;;;;;;;5041565;28;20423;-69
2022/11/10 13:21:58;;;;;;;15.68;11.68;;;;;;;;;;5051540;28;20069;-70
2022/11/10 13:24:38;;;;;;;18.45;13.25;;;;;;;;;;5043113;28;20053;-69
2022/11/10 13:27:08;;;;;;;18.73;13.18;;;;;;;;;;5029195;28;20072;-69
2022/11/10 13:29:46;;;;;;;17.35;12.85;;;;;;;;;;5029956;28;20080;-69
2022/11/10 13:32:14;;;;;;;17.88;12.85;;;;;;;;;;5030294;28;20461;-70
2022/11/10 13:34:44;;;;;;;17.25;12.00;;;;;;;;;;5028701;28;20029;-69
2022/11/10 13:37:28;;;;;;;17.75;12.93;;;;;;;;;;5028665;28;20033;-73
2022/11/10 13:40:19;;;;;;;20.10;13.30;;;;;;;;;;5031297;28;20079;-73
2022/11/10 13:42:59;;;;;;;18.42;11.75;;;;;;;;;;5031261;28;20025;-72
2022/11/10 13:45:33;;;;;;;18.40;12.68;;;;;;;;;;5031080;28;20025;-73
2022/11/10 13:48:35;;;;;;;21.05;13.20;;;;;;;;;;5031177;28;20030;-72
2022/11/10 13:51:25;;;;;;;16.70;12.32;;;;;;;;;;5022717;28;20037;-72
2022/11/10 13:53:59;;;;;;;17.63;12.15;;;;;;;;;;5030976;28;20057;-72
2022/11/10 13:56:47;;;;;;;16.27;12.63;;;;;;;;;;5030874;28;20041;-72
2022/11/10 13:59:23;;;;;;;16.58;12.02;;;;;;;;;;5043947;28;20132;-72
2022/11/10 14:01:48;;;;;;;17.75;12.70;;;;;;;;;;5028105;28;20108;-73
2022/11/10 14:04:43;;;;;;;18.08;12.57;;;;;;;;;;5029088;28;20462;-72
2022/11/10 14:07:16;;;;;;;17.13;12.27;;;;;;;;;;5030613;28;20025;-72
2022/11/10 14:09:49;;;;;;;18.38;12.88;;;;;;;;;;5030956;28;20112;-72
2022/11/10 14:12:36;;;;;;;16.85;12.70;;;;;;;;;;5030986;28;20033;-73
2022/11/10 14:15:05;;;;;;;21.27;13.20;;;;;;;;;;5030904;28;20034;-72
2022/11/10 14:17:35;;;;;;;20.08;13.35;;;;;;;;;;5030796;28;20022;-72
2022/11/10 14:20:01;;;;;;;19.40;13.07;;;;;;;;;;5030916;28;20160;-72
2022/11/10 14:22:34;;;;;;;17.13;12.93;;;;;;;;;;5030860;28;20485;-71
2022/11/10 14:25:11;;;;;;;19.27;13.25;;;;;;;;;;5030736;28;20107;-72
2022/11/10 14:27:39;;;;;;;16.58;12.63;;;;;;;;;;5030979;28;20083;-72
2022/11/10 14:30:27;;;;;;;19.95;12.45;;;;;;;;;;5030683;28;20049;-71
2022/11/10 14:33:10;;;;;;;16.20;12.68;;;;;;;;;;5030226;28;20052;-71
2022/11/10 14:35:47;;;;;;;18.05;12.75;;;;;;;;;;5030533;28;20410;-71
2022/11/10 14:38:23;;;;;;;18.05;12.70;;;;;;;;;;5030959;28;20060;-71
2022/11/10 14:40:52;;;;;;;19.70;12.77;;;;;;;;;;5030924;28;20118;-70
2022/11/10 14:43:28;;;;;;;16.55;12.02;;;;;;;;;;5030657;28;20065;-69
2022/11/10 14:45:54;;;;;;;18.90;12.07;;;;;;;;;;5030453;28;20037;-71
2022/11/10 14:48:22;;;;;;;19.80;12.05;;;;;;;;;;5030630;28;20481;-71
2022/11/10 14:50:49;;;;;;;18.05;12.40;;;;;;;;;;5028534;28;20036;-71